Impacts METAR Board
IDs:

KSAN - San Diego Intl Arpt, CA, US

Updated at: 0200 UTC 12 Dec 2018
Potential Impact None Slight Moderate High
Time 11/14Z 11/15Z 11/16Z 11/17Z 11/18Z 11/19Z 11/20Z 11/21Z 11/22Z 11/23Z 12/00Z 12/01Z 12/02Z
Temp58 58 59 62 64 64 64 65 65 65 64 63 62
Dewpt52 52 53 53 53 53 53 54 53 52 52 51 52
Altim30.03 30.04 30.05 30.07 30.06 30.05 30.03 30.01 30.00 30.00 30.01 30.02 30.04
VIS6 7 6 8 10 10 10 10 10 10 10 10 10
CIG7 30 30 140 -- -- -- -- -- -- -- -- --
CoverOVCBKNBKNBKNSCTSCTFEWFEWFEWFEWFEWFEWFEW
FltCatIFRMVFRMVFRVFRVFRVFRVFRVFRVFRVFRVFRVFRVFR
WXBR--HZ--------------------
WDir0807001200220210250230250230220
WSpd0 4 4 0 4 4 7 5 6 8 4 4 3
WGst-- -- -- -- -- -- -- -- -- -- -- -- --
Raw hourly METARs
KSAN 111351Z 00000KT 6SM BR BKN007 BKN012 OVC200 14/11 A3003 RMK AO2 SLP169 CIG 006V008 T01440111
KSAN 111458Z COR 08004KT 7SM FEW009 SCT017 BKN030 BKN200 14/11 A3004 RMK AO2 T01440111
KSAN 111551Z 07004KT 6SM HZ FEW017 SCT023 BKN030 BKN200 15/12 A3005 RMK AO2 SLP174 T01500117
KSAN 111651Z 00000KT 8SM SCT017 SCT023 BKN140 BKN200 17/12 A3007 RMK AO2 SLP182 T01670117
KSAN 111751Z 12004KT 10SM FEW013 FEW025 SCT080 SCT140 18/12 A3006 RMK AO2 SLP180 T01780117 10178 20144 50008
KSAN 111851Z VRB04KT 10SM FEW025 SCT080 18/12 A3005 RMK AO2 SLP175 T01780117
KSAN 111951Z 22007KT 10SM FEW025 18/12 A3003 RMK AO2 SLP169 T01780117
KSAN 112051Z 21005KT 10SM FEW025 18/12 A3001 RMK AO2 SLP163 T01830122 58017
KSAN 112151Z 25006KT 10SM FEW025 18/12 A3000 RMK AO2 SLP159 T01830117
KSAN 112251Z 23008KT 10SM FEW025 18/11 A3000 RMK AO2 SLP158 T01830111
KSAN 112351Z 25004KT 10SM FEW025 18/11 A3001 RMK AO2 SLP161 T01780111 10183 20172 55001
KSAN 120051Z 23004KT 10SM FEW023 FEW220 17/11 A3002 RMK AO2 SLP166 T01720106
KSAN 120151Z 22003KT 10SM FEW023 FEW220 17/11 A3004 RMK AO2 SLP172 T01670111



Page loaded:  02:54 UTC  |   06:54 PM Pacific  |   07:54 PM Mountain  |   08:54 PM Central  |   09:54 PM Eastern

 

ADVISORIES

FORECASTS

FORECASTS

OBSERVATIONS

USER TOOLS

ABOUT US